events-overview

Kinetic Half

 

Overall Men

Lake Anna State Park - Spotsylvania, VA 5/08/2010 08:00AM

** Results are for the private use of participants and are the Intellectual Property of Set Up Events. Unauthorized use of these results is prohibited.

Place Bib Co NAME CITY/STATE Rank SWIM Rank T1 Rank BIKE Rank T2 Rank RUN PENALTY TIME DQ
173 Jeremy CornmanLeetsdale PA2600:23:302800:01:15402:23:157400:01:16101:22:40 04:11:53 
254 Michael HarlowRichmond VA200:21:18700:00:57802:25:47300:00:37201:24:08 04:12:45 
393 Iain BanksBowie MD2100:23:233100:01:16302:23:10500:00:39301:26:46 04:15:12 
467 Chad HolderbaumIrwin PA1500:22:592400:01:14502:24:00800:00:48501:28:37 04:17:35 
5279 Kevin ParkChardon OH12400:27:402000:01:131502:28:174900:01:08401:27:30 04:25:46 
6123 Justin RiddleKing George VA500:21:354300:01:221102:26:34200:00:362501:36:37 04:26:42 
745 Ben FarrellVirginia Beach VA5300:24:541200:01:04202:22:361500:00:532901:37:31 04:26:56 
891 Philip SchmidtWashington DC100:21:042700:01:153302:34:47700:00:44601:29:26 04:27:13 
929 Thomas WoodTallmansville WV600:22:032300:01:131902:29:431700:00:541701:35:06 04:28:58 
1025 Dave SmithVirginia Beach VA2200:23:25500:00:57602:24:429400:01:221501:34:4700:04:0004:29:10 
1198 Austin JacksonVirginia Beach VA2700:23:44200:00:49902:25:501400:00:523401:38:19 04:29:33 
1290 Matt MauclairAspinwall PA1900:23:144000:01:202202:30:401200:00:511301:34:32 04:30:36 
13170 Joel MyersVirginia Beach VA6300:25:561600:01:061002:26:121000:00:492601:36:52 04:30:53 
14238 Doug WoodsGaithersburg MD10400:27:101500:01:051202:27:062300:00:592001:36:00 04:32:18 
15311 Douglas MaroccoMontclair VA3000:23:526400:01:312302:31:277300:01:151201:34:25 04:32:29 
16229 Steve MeiningerClarksville MD4600:24:361000:01:012002:30:133600:01:032701:36:59 04:33:50 
17271 Marion HerringRichmond VA800:22:061800:01:095502:39:185000:01:08901:32:17 04:35:56 
18115 Robert ScheungrabGettysburg PA7300:26:152500:01:143102:33:542100:00:581801:35:16 04:37:35 
19152 Nate SpongReston VA6100:25:475600:01:293802:36:201300:00:521401:34:38 04:39:04 
20290 Wes HayesSuffolk VA9100:26:42600:00:572102:30:28100:00:304201:40:32 04:39:08 
21262 Ted WaughSpringfield VA9700:26:5419600:02:262702:32:262600:01:003001:37:37 04:40:21 
2297 Fabrice GuillaumeAshburn VA11400:27:1911700:01:543402:34:481900:00:562201:36:13 04:41:07 
23116 Henry TragleLeesburg VA3100:23:543600:01:191702:28:427100:01:157101:46:40 04:41:49 
24360 Mark ReynoldsAkron OH5500:24:556500:01:323202:34:2710500:01:243901:39:57 04:42:13 
25277 Stephen OffordPorter Corners NY2000:23:2316000:02:105602:39:3213800:01:371901:35:55 04:42:34 
2614 Marc MalottBaltimore MD10900:27:144500:01:243502:34:558300:01:203501:38:34 04:43:25 
27280 Saulius PuskoriusReston VA9900:26:578700:01:412402:31:365500:01:105901:44:23 04:45:44 
2816 Jonathan AndersonFairfax VA2900:23:489300:01:451302:27:3617800:01:509101:50:51 04:45:48 
29296 Brian SternKirtland OH16500:28:487700:01:364802:38:082000:00:562401:36:27 04:45:53 
3071 Scott BaileyReston VA18900:29:314200:01:205802:40:023700:01:031601:34:48 04:46:43 
PlaceBibCoNAMECITY/STATERankSWIMRankT1RankBIKERankT2RankRUNPENALTYTIMEDQ
31340 Mark RobbinsCharlottesville VA4100:24:2410600:01:493702:35:5213900:01:375501:43:56 04:47:36 
3296 Robert GreenMidlothian VA2500:23:29300:00:491402:27:48400:00:3712101:55:32 04:48:14 
3332 Nathan CurllWashington DC400:21:30900:01:002602:32:044300:01:0610301:52:40 04:48:18 
3458 Timothy OttoPhiladelphia PA6400:25:567200:01:355102:38:594500:01:064401:40:51 04:48:25 
35204 Anthony GuidaWashington DC9800:26:5623200:02:4210102:46:227000:01:14701:31:21 04:48:33 
36135 Neal FreemerBristow VA1100:22:298100:01:375302:39:016000:01:126601:45:05 04:49:22 
37140 Andrew LipscombAlexandria VA6200:25:552200:01:135202:38:597500:01:164801:42:11 04:49:32 
3874 Kenneth HawkesBaltimore MD10500:27:103400:01:187302:43:016200:01:132801:37:15 04:49:55 
3912 Ryan FoxPetersburg VA23300:30:4317700:02:162502:31:5514600:01:405301:43:34 04:50:07 
40234 Steve RussellSeverna Park MD12700:27:4825200:02:496802:42:039600:01:222301:36:19 04:50:19 
4157 Andy NesheimMequon WI7400:26:192100:01:131602:28:3713700:01:3711401:53:42 04:51:26 
42264 Scott BaldwinReston VA11000:27:1515600:02:094002:36:473200:01:026101:44:30 04:51:41 
43168 Thomas MaloneBrooklyn NY3500:24:009500:01:457202:43:008400:01:204601:42:01 04:52:04 
44248 David HartStudley VA13700:28:018400:01:3912002:48:498900:01:201001:33:16 04:53:04 
45232 Rick PerraultKeswick VA17400:29:05800:01:004402:37:353100:01:016301:44:36 04:53:14 
46189 Christopher RatchfordMidlothian VA6000:25:475500:01:285902:40:0610200:01:236201:44:33 04:53:15 
47106 Edward BradleyDickerson MD10300:27:0916500:02:1313102:50:1219100:01:56801:31:59 04:53:27 
4885 Mark ConoverArlington VA6800:26:017300:01:358902:44:5121200:02:043701:39:28 04:53:57 
4969 Matthew KirkendallManakin Sabot VA16700:28:5215100:02:066902:42:032700:01:004001:40:12 04:54:11 
50276 Michael LombardoElkridge MD23900:30:5019500:02:266002:40:126700:01:144101:40:20 04:55:00 
5175 Joshua KapturOdenton MD14400:28:1114400:02:0410002:46:166300:01:133101:37:50 04:55:32 
52114 Thomas OgdenArlington VA9600:26:526600:01:3211702:48:256900:01:143301:37:57 04:55:59 
53103 Phil TillerBurke VA6900:26:021900:01:1210602:46:4512700:01:334301:40:41 04:56:11 
54161 Craig EllisHerndon VA20400:29:5316800:02:135702:40:029200:01:215001:42:44 04:56:11 
55378 Greg GuintherRichmond VA11800:27:2611800:01:545002:38:524700:01:087201:46:58 04:56:18 
56254 Stephan LipsAustin TX10100:27:0611500:01:531802:28:4912000:01:3013601:57:27 04:56:43 
57580CRyan GrovePittsburgh PA5600:25:1514300:02:048202:44:195400:01:095601:44:00 04:56:44 
58205 Konrad HellerFredericksburg VA900:22:2011900:01:557002:42:2210900:01:256501:44:5800:04:0004:56:58 
59164 Randall KiserReston VA7700:26:256700:01:323902:36:3711500:01:279501:51:09 04:57:09 
60210 Darren RentchWashington DC13300:27:553900:01:207702:43:2712500:01:335201:43:31 04:57:44 
61330 Sonny LoweWilliamsburg VA15200:28:288600:01:408102:44:155900:01:124901:42:38 04:58:11 
PlaceBibCoNAMECITY/STATERankSWIMRankT1RankBIKERankT2RankRUNPENALTYTIMEDQ
6219 Jesse ShaulisHollsopple PA17200:28:593200:01:163002:33:393900:01:058201:49:3300:04:0004:58:30 
63155 Brandon WitteArnold MD9400:26:476900:01:333602:35:5215100:01:4310401:52:42 04:58:35 
6492 Matthew BabcockRoanoke VA19900:29:4714800:02:054202:37:152500:01:007801:49:05 04:59:11 
65182 Chip KogelmannState College PA27400:32:3435000:04:114602:37:472900:01:003801:39:5400:04:0004:59:24 
6610 Jordan ChangWinchester VA11300:27:18100:00:4910802:47:00600:00:405401:43:51 04:59:36 
6780 Daniel SerpicoEllicott City MD1800:23:134400:01:2313802:50:393300:01:026001:44:29 05:00:44 
68339 Tommy NettletonColumbia TN4300:24:344800:01:2511602:48:1812100:01:306701:45:13 05:00:57 
6926 Alex SortoSuitland MD17700:29:147600:01:3516002:53:1713600:01:362101:36:13 05:01:54 
707 Daniel AntoonBeavercreek OH4500:24:353300:01:167902:43:378000:01:189701:51:22 05:02:06 
71376 Jeff OxmanRockville MD5800:25:387000:01:3411002:47:347700:01:177001:46:08 05:02:09 
72387 Bradley PaffordWoodbridge VA13100:27:546800:01:339402:45:2117500:01:496801:45:42 05:02:17 
73100 Chris LombardiWashington DC5100:24:5220500:02:2918602:56:0611700:01:283201:37:56 05:02:50 
74265 Brian BartholomewCharlottesville VA12500:27:4011000:01:5213502:50:3411600:01:274701:42:07 05:03:38 
75180 Jon DuffyAlexandria VA16600:28:509800:01:464702:38:008200:01:2011801:54:26 05:04:21 
7611 Chuck FeerickVirginia Bech VA28900:33:0325500:02:5115502:52:2918600:01:541101:34:10 05:04:25 
77244 James DavisFincastle VA4400:24:348000:01:379502:45:2823300:02:158901:50:46 05:04:37 
78185 Jay McAbierChagrin Falls OH8700:26:389200:01:444502:37:466100:01:1313801:57:36 05:04:55 
79272 Todd HouchinsNew York NY15900:28:3718000:02:186502:41:3921300:02:058501:50:20 05:04:57 
8033 Adam DeWittClemson SC24000:30:511700:01:072902:33:249000:01:2114801:59:11 05:05:51 
8161 Adam VandervortArlington VA22200:30:2523900:02:4615702:53:075800:01:103601:38:41 05:06:06 
82380 Dave VenableYorktown VA20500:29:5413300:02:018602:44:3015800:01:457601:48:38 05:06:45 
83294 Rob LaceyVirginia Beach VA8900:26:4116100:02:1011402:48:094000:01:057901:49:26 05:07:29 
84268 Bruce EnglishWaynesboro VA14700:28:1924300:02:4810902:47:147900:01:187501:48:17 05:07:53 
85346 Todd HartCopley OH31400:34:2112400:01:565402:39:0715400:01:439401:51:08 05:08:14 
86145 Gregory HertzBrooklyn NY3600:24:1230300:03:2110402:46:3925800:02:269801:51:44 05:08:20 
87397 Tom KeeleyChesapeake VA22300:30:2717600:02:1614202:50:518700:01:205701:44:06 05:08:58 
88329 Dan LehmanCarrboro NC9500:26:528200:01:386302:40:3813200:01:3615101:59:27 05:10:08 
8972 Joel CervelloniWashington DC18000:29:1810900:01:5015302:52:2020500:02:016401:44:50 05:10:18 
90301 Mark LevyOwings Mills MD7000:26:0312300:01:5614702:51:358800:01:208101:49:30 05:10:23 
9162 Tim WalkerArlington VA17800:29:1421700:02:367502:43:229300:01:2212501:56:06 05:12:38 
922 Ryan SteinbachCollege Park MD12800:27:5013100:02:0116302:53:3619000:01:567401:47:53 05:13:13 
PlaceBibCoNAMECITY/STATERankSWIMRankT1RankBIKERankT2RankRUNPENALTYTIMEDQ
93105 Robert Brad""" BellRaleigh NC30900:33:5314600:02:059702:45:586400:01:138401:50:14 05:13:21 
94130 Don BautistaVirginia Beach VA26400:32:049900:01:478502:44:2516800:01:4711101:53:27 05:13:27 
95237 Jed VanichkachornGlen Allen VA12600:27:478300:01:3815202:52:14900:00:489601:51:18 05:13:43 
96133 Bryson FilbertSilver Spring MD5400:24:548900:01:4210202:46:2710300:01:2315301:59:56 05:14:21 
97129 Justin AbernathyWashington DC11200:27:1725000:02:486702:41:5618300:01:5316002:00:42 05:14:35 
98158 Joshua BeardsleySouth Riding VA23600:30:4828300:03:067402:43:1918100:01:5312201:55:41 05:14:44 
9923 Brendan HanrahanBeltsville MD10800:27:124700:01:2415602:52:401600:00:5310701:53:06 05:15:15 
100297 Michael BabaSilver Spring MD10000:27:039100:01:4316802:54:3014000:01:378701:50:25 05:15:16 
10194 Bryan DealMechanicsville VA16200:28:4310000:01:4714002:50:425300:01:0911001:53:17 05:15:36 
102570MCTodd McIntyrePittsburgh PA26700:32:187500:01:3516202:53:2815300:01:437301:46:59 05:16:01 
103247 Hugh HarrisNew Carrollton MD8600:26:3612900:01:5921703:00:313400:01:036901:45:57 05:16:05 
10436 Denis MoffettBallston Lake NY19600:29:446000:01:317802:43:316600:01:1415502:00:16 05:16:14 
105357 Michael JohnsonCarlisle PA20800:29:5716900:02:1314302:50:5626000:02:289001:50:50 05:16:22 
106252 Ken KoppenhaverFairport NY2300:23:2726600:02:5519202:56:5214100:01:3710001:52:15 05:17:03 
107566MCKip JawishFrederick MD7800:26:263500:01:1912902:50:082800:01:0014301:58:15 05:17:06 
10846 David GarrisiFalls Church VA12100:27:331100:01:0113402:50:281800:00:5514001:57:40 05:17:34 
10934 Carl FudgeWashington DC12000:27:322900:01:1521002:59:054200:01:068301:49:52 05:18:48 
110246 David GreenOak Hill VA27600:32:3710100:01:476202:40:213000:01:0117802:03:18 05:19:03 
111559MCBrian ClarkMartinsburg WV22100:30:229600:01:456102:40:1928700:02:4518602:04:06 05:19:17 
112278 Brad OnofrioGlen Allen VA15000:28:2610200:01:4813202:50:2416200:01:4513101:57:06 05:19:27 
113132 Greg CroffordFairfax Station VA10600:27:119400:01:4524603:05:0010700:01:245801:44:23 05:19:41 
11447 Brian KennedyAlexandria VA3200:23:5533700:03:5319402:57:0215500:01:4310901:53:16 05:19:48 
115334 Michael BaldwinRichmond VA20200:29:5016700:02:139202:45:1014700:01:4016402:01:24 05:20:16 
116358 Calvin MilamLynchburg, VA17500:29:0920800:02:3012802:50:0421700:02:0712701:56:38 05:20:25 
117400 William WrenArlington VA3300:23:5510400:01:4818702:56:3225900:02:2712401:55:55 05:20:35 
118150 Gavin McCartyMoseley VA27000:32:2225300:02:4913902:50:416500:01:1411301:53:34 05:20:38 
119193 Matt WhitfieldPotomac Falls VA7100:26:0821900:02:3612202:49:0510800:01:2513901:57:3600:04:0005:20:49 
12040 Kenneth SteinBellaire TX4200:24:2930100:03:1516602:54:1613400:01:3613301:57:19 05:20:54 
121325 Steve GriffithGlen Allen VA13500:27:589700:01:4511202:48:0011200:01:2717002:01:57 05:21:05 
122366 Serge ReveilleAlexandria VA30500:33:4526100:02:5214102:50:4328000:02:419301:51:07 05:21:06 
123331 Steve MabeusMontclair VA6500:26:0015500:02:0812402:49:2310400:01:2417502:03:02 05:21:54 
PlaceBibCoNAMECITY/STATERankSWIMRankT1RankBIKERankT2RankRUNPENALTYTIMEDQ
124258 Peter SieglaffKennett Square PA8800:26:407900:01:3713002:50:0817200:01:4816502:01:45 05:21:56 
125142 Paul WinstonBrooklyn NY14300:28:095100:01:2711502:48:094100:01:0518002:03:35 05:22:24 
126367 Christopher RyanWashington DC28300:32:4723500:02:4216502:54:1018500:01:539201:50:55 05:22:26 
127166 Reza MahbodArlington VA26000:31:5733500:03:5316102:53:2236400:04:187701:49:05 05:22:33 
128576CNathan BowardSan Diego CA20600:29:5511300:01:538302:44:2117400:01:4918902:04:41 05:22:37 
129386 Joseph McMullinWoodbridge VA3400:23:5714100:02:0314402:51:1415700:01:4518802:04:25 05:23:21 
130381 Rob ColburnAshburn VA9200:26:4413600:02:0218102:55:3523200:02:1512901:56:50 05:23:23 
131281 Matthew QuinnAlexandria VA36500:37:3020900:02:3111102:47:4428800:02:4610801:53:08 05:23:36 
132172 Michael StevensonArlington VA1200:22:429000:01:4316702:54:2926100:02:2917102:02:19 05:23:41 
133260 Shane TurleyCharlotte NC14000:28:0622100:02:374102:37:034400:01:0624702:15:21 05:24:10 
134162 Carter GroomeWashington DC3700:24:143700:01:2026303:07:0111300:01:278801:50:34 05:24:34 
135221 Eric GlymphChesterfield VA30000:33:2515200:02:0720202:57:384600:01:078601:50:23 05:24:38 
13688 Jeff JoynerFredericksburg VA15400:28:2910300:01:488702:44:3421800:02:0820302:07:41 05:24:38 
137373 James KettenhofenManassas VA16800:28:5232800:03:4017202:54:5425600:02:2212001:55:23 05:25:09 
138391 Steven GiorgisHerndon VA4000:24:2010800:01:5012602:49:569800:01:2321102:08:54 05:26:21 
139178 Jim BuellEaton Rapids MI30400:33:4414200:02:036402:41:0621000:02:0320202:07:38 05:26:32 
140126 Jon TaillonArlington VA14600:28:1720700:02:3015802:53:129700:01:2216302:01:22 05:26:41 
141194 Chad AlbrightRoanoke VA21200:30:0826900:02:5610302:46:3321400:02:0616202:01:0800:04:0005:26:48 
142176 Mateo AyalaArlington VA9300:26:4618800:02:2323903:04:0017700:01:5010101:52:15 05:27:13 
143240 Charles BarnesVienna VA26300:32:0323000:02:4211302:48:0615600:01:4317402:03:01 05:27:34 
144273 Jay HugoRichmond VA27300:32:3118700:02:2219302:56:5312600:01:3311601:54:18 05:27:34 
14587 Richard EilbeckWashington DC20100:29:4830800:03:2628103:10:1112800:01:345101:43:14 05:28:11 
14660 Ryan TrollWashington DC18400:29:2212100:01:559802:46:0711100:01:2621402:09:29 05:28:17 
147320 Serge VanderbreetstraetenAlexandria VA19100:29:3324400:02:488002:44:0222300:02:0921602:10:06 05:28:36 
148307 Julian CoinerFrederick MD14200:28:0811400:01:5320002:57:2814400:01:4015201:59:45 05:28:52 
149102 Travis SiehndelWashington DC13000:27:5117500:02:1518802:56:3629800:02:5515001:59:27 05:29:02 
150213 Matt WitlinOak Hill VA28800:33:0224100:02:4712702:50:0031400:03:0312601:56:2600:04:0005:29:17 
151343 Asa BeaversHolly Springs NC8400:26:3320300:02:2920502:58:0417900:01:5115602:00:22 05:29:17 
152199 Tim DayWoodbridge VA28500:32:5113000:02:0118202:55:3710000:01:2313701:57:32 05:29:21 
15377 Ed LiebowitzCharlottesville VA16100:28:4037500:04:4110502:46:4123000:02:1320002:07:18 05:29:32 
15455 Ben McCallHerndon VA15500:28:29400:00:5515002:52:045600:01:1019902:07:17 05:29:53 
PlaceBibCoNAMECITY/STATERankSWIMRankT1RankBIKERankT2RankRUNPENALTYTIMEDQ
1554 Michael MabeusMontclair VA4700:24:3712000:01:5512502:49:328100:01:1922802:12:33 05:29:54 
156233 Peter ReaveyCary NC33500:35:0719300:02:2521302:59:4824600:02:1810501:52:44 05:32:19 
157314 Richard HartleyAnnandale VA25200:31:2938100:04:4617502:55:0722200:02:0915902:00:31 05:33:59 
158283 Michael TemmeChesapeake VA11100:27:1624000:02:4626403:07:0330800:03:0011701:54:19 05:34:21 
159319 Joseph SiseAmsterdam NY11600:27:2217900:02:178802:44:4425300:02:2026502:17:53 05:34:35 
160370 Louis AlmekindersChapel Hill NC1300:22:5215700:02:0917802:55:3211000:01:2523102:12:40 05:34:36 
16151 Fabrice BeaulieuFalls Church VA11700:27:234100:01:2022903:02:125200:01:0817302:02:45 05:34:47 
162322 Steven WoodcockTallahassee FL28400:32:4819800:02:2710702:46:5119900:01:5922202:11:02 05:35:06 
163239 Marc ApplegateMarriottsville MD13600:27:5926500:02:5413302:50:2627900:02:4022302:11:11 05:35:09 
16443 Brian CookWashington DC15600:28:3020100:02:2827903:09:3818200:01:5310601:52:51 05:35:18 
165179 Jeff DarlingAshburn VA1000:22:2227600:02:5928203:10:3824200:02:1813201:57:15 05:35:29 
166101 Edward RoseGlen Carbon IL2400:23:2830200:03:1719002:56:4820800:02:0322002:10:39 05:36:13 
167241 Michael BennettReston VA26200:32:0234200:04:0031003:15:2732300:03:114501:41:37 05:36:15 
168338 Stephen MessingerArlington VA13800:28:015700:01:3029303:12:4919700:01:589901:52:06 05:36:22 
169257 Chip ShewbridgePotomac Falls VA25000:31:2228200:03:0417902:55:3224000:02:1715702:00:2900:04:0005:36:42 
17086 John Du MontAshburn VA25600:31:4222000:02:3722803:02:0131600:03:0613501:57:21 05:36:46 
171216 Jeff DavisFairfax VA10700:27:1227700:02:5925403:06:1322900:02:1214501:58:20 05:36:54 
172336 Ernie CastroOak Hill VA19400:29:4019900:02:2823203:02:2419200:01:5715802:00:30 05:36:57 
173589CJoe RiggioAshburn VA13400:27:5620000:02:2822703:01:5720100:02:0017602:03:10 05:37:28 
174177 Daniel BallinWilliamsburg VA7600:26:2317200:02:156602:41:4621600:02:0629302:26:10 05:38:39 
175171 John PercherkeBristow VA34600:35:5416600:02:1324003:04:0830600:02:5911201:53:29 05:38:41 
176249 Chris KaneSterling VA22700:30:3134000:03:5817702:55:3024300:02:1817202:02:3800:04:0005:38:53 
177363 David JohnsReston VA14900:28:2321400:02:3326803:07:449900:01:2314901:59:11 05:39:12 
17817 Michael Di MarcoWashington DC26900:32:2035600:04:1511902:48:4135900:04:0221702:10:16 05:39:32 
17948 Andrew NewboldPurcellville VA17900:29:1818500:02:2116402:53:5020600:02:0222902:12:37 05:40:06 
180143 Rodrigo GarciaCentreville VA34200:35:3418600:02:2224403:04:3419300:01:5712301:55:45 05:40:10 
181300 Dean GrayClarksville MD31300:34:1313200:02:0118902:56:4412200:01:3016802:01:5200:04:0005:40:18 
182201 Eric GaierWashington DC25800:31:5123600:02:4321202:59:3626700:02:3118102:03:41 05:40:21 
183364 Michael KiehlMidlothian VA23200:30:4212800:01:5922603:01:3022800:02:1118702:04:17 05:40:38 
184245 Rav DigheSt Albans XX28200:32:4623400:02:4220102:57:3424100:02:1819102:05:35 05:40:53 
185348 Andy IsheeBethesda MD5200:24:5213900:02:0220602:58:1117600:01:5024002:14:15 05:41:08 
PlaceBibCoNAMECITY/STATERankSWIMRankT1RankBIKERankT2RankRUNPENALTYTIMEDQ
186563MCJoseph FlemingWaynesboro VA24400:31:0612700:01:599302:45:2131700:03:0727102:19:43 05:41:14 
187573MCAl NavidiRockville MD40100:42:4216400:02:1214502:51:207200:01:1518302:03:49 05:41:17 
188388 Paul SpencerRemington VA9000:26:4214700:02:0521903:00:4118700:01:5421902:10:20 05:41:41 
1895 Richard MolzahnVirginia Beach VA31200:34:133000:01:1517002:54:431100:00:5122102:10:57 05:41:57 
190208 Domino IrelandRaleigh NC39600:41:3626000:02:5226103:06:579100:01:218001:49:26 05:42:11 
19184 Jonathan BlakesleeFairfax VA13900:28:0218400:02:2028403:10:4930500:02:5914601:58:24 05:42:32 
192207 Brandon HutchersonGlen Allen VA1700:23:107400:01:357602:43:2314800:01:4032002:33:29 05:43:15 
19370 Brock LanierBethesda MD6700:26:0013700:02:0225603:06:2510100:01:2320102:07:31 05:43:19 
194317 Scott MaddenBethesda MD19000:29:3127500:02:599902:46:1418800:01:5528302:22:46 05:43:24 
195382 Steve CummingsAlexandria VA5000:24:4924600:02:4824903:05:3625000:02:1920502:07:56 05:43:27 
196324 Miguel CarrionNew Market MD4900:24:478500:01:3929703:13:4330700:03:0016102:00:44 05:43:51 
197284 Doug WeeksWestminster MD29900:33:2434500:04:0121402:59:4829700:02:5518402:03:51 05:43:57 
198147 Ihan KimWashington DC37500:38:1012600:01:5811802:48:387600:01:1624102:14:15 05:44:16 
199269 Matthias GrueningerBethesda MD24800:31:1835200:04:1220802:58:4524400:02:1820602:07:58 05:44:29 
20082 Josh AbellAlexandria VA20300:29:5232500:03:3725003:05:4135100:03:4716602:01:46 05:44:42 
20115 Michael PokoraRichmond VA37700:38:3519700:02:279002:44:5229300:02:5225202:16:06 05:44:52 
202299 Anthony DesmetVirginia Beach VA3900:24:1618100:02:1813602:50:3516300:01:4529402:26:22 05:45:15 
203165 David KungLexington Park MD12200:27:3321500:02:3422403:01:1913000:01:3522702:12:15 05:45:15 
204128 Jason AbernathyWashington DC7500:26:2022400:02:3918302:55:4626800:02:3126702:18:07 05:45:21 
205188 Tuan NguyenReston VA39400:41:0619100:02:2419902:57:2715900:01:4517702:03:14 05:45:54 
206393 Masaki TakahashiMcLean VA38700:39:2926800:02:5523303:02:4034500:03:3513401:57:19 05:45:55 
207321 Paul Willebeek-LemairHerndon VA14500:28:1322300:02:389602:45:5027700:02:3830102:27:08 05:46:26 
20838 Adam ReuscherArlington VA38300:39:1710500:01:4821102:59:2123600:02:1718202:03:49 05:46:30 
209371 Craig BrumwellAston PA13200:27:5422500:02:4024703:05:3122500:02:1021002:08:43 05:46:56 
210187 John MussomeliWinston-Salem NC33000:34:5831800:03:3423803:03:5230100:02:5616702:01:49 05:47:07 
21124 Andrew MarquardtGreat Falls VA29800:33:2427800:03:008402:44:2312400:01:3228902:25:10 05:47:27 
212344 David BrundageMontclair VA30700:33:4835800:04:1829203:12:1728600:02:4511901:54:32 05:47:38 
213251 Bruce KlingerVirginia Beach VA18600:29:2536000:04:2219602:57:0918000:01:5224402:15:04 05:47:51 
214184 Gregory MageeFalls Church VA15700:28:3232600:03:3819702:57:2236700:04:2924602:15:19 05:49:18 
215335 Bill BeyerReston VA7200:26:1113400:02:0112102:48:5516500:01:4730002:26:5900:04:0005:49:50 
216286 Robert BarlowReston VA21500:30:0921200:02:3222303:01:1413100:01:3524202:14:27 05:49:56 
PlaceBibCoNAMECITY/STATERankSWIMRankT1RankBIKERankT2RankRUNPENALTYTIMEDQ
217352 Anthony StrangeRichmond VA25300:31:3334400:04:0025803:06:3929900:02:5619002:05:04 05:50:10 
218108 Daniel GibsonStafford VA32200:34:3715800:02:1017102:54:4822400:02:0925802:16:32 05:50:14 
219291 Andrew HeckAmsterdam NY29200:33:1122800:02:4120302:57:4418400:01:5325002:15:35 05:51:02 
220287 Chip CannonWashington DC24300:31:0521300:02:3231503:17:0621900:02:0814401:58:18 05:51:08 
221362 Michael EspositoSterling VA27900:32:3823800:02:4527303:08:1220300:02:0019402:05:49 05:51:23 
22239 Brad SmithWilliamsburg VA8000:26:264600:01:2418002:55:3216900:01:4729802:26:49 05:51:56 
22364 Alan BroderickWilliamsburg VA8300:26:3311200:01:5215902:53:146800:01:1430502:29:05 05:51:57 
224326 Dan HuffmanFredericksburg VA21400:30:0932100:03:3523403:02:4220400:02:0123902:14:06 05:52:31 
225175 Rob AllenGlen Allen VA8100:26:2717000:02:1424103:04:2612300:01:3026602:18:00 05:52:35 
226274 Robert JonesLeesburg VA26600:32:1629200:03:1120902:58:4733300:03:2624502:15:11 05:52:48 
227149 Greg MallonAlexandria VA22000:30:1832000:03:3431103:15:5934200:03:3315402:00:03 05:53:25 
22827 Jon StewartArlington VA18200:29:228800:01:4136003:27:5923700:02:1710201:52:24 05:53:41 
229120 Timothy HuddlestonSpringfield VA24200:31:0314000:02:0330903:15:1733800:03:2916902:01:55 05:53:46 
23013 Michael HeadleyArlington VA16000:28:386200:01:3118402:55:4825700:02:2429002:26:00 05:54:19 
231191 Leonardo VieiraBurke VA32900:34:5315900:02:1023103:02:2113300:01:3623602:13:45 05:54:43 
232349 Stephen MackeyStafford VA18500:29:2327900:03:0025303:06:1230900:03:0023702:13:54 05:55:27 
233383 Rick EnglishGlen Allen VA35500:36:3917300:02:1525203:06:0626500:02:3120802:08:08 05:55:37 
234121 Eric LaceyOakton VA32300:34:3916200:02:1026703:07:3024500:02:1821302:09:26 05:56:01 
235327 Bill KiestlerChesapeake VA11900:27:2722700:02:4125503:06:2316400:01:4626402:17:51 05:56:06 
236569MCChris MaloneMiddleburg VA31600:34:2421100:02:3214802:51:5739400:06:3527602:20:59 05:56:25 
237306 Bob StrongHerndon VA38100:39:0721800:02:3630803:15:1014900:01:4014201:58:04 05:56:35 
2383 Zach BenderHatboro PA15800:28:375000:01:2724203:04:2811900:01:2927802:21:18 05:57:16 
239593CT. Isaac SimerlyAlexandria VA39500:41:1440200:06:2028503:10:5325200:02:2012801:56:49 05:57:35 
24066 Francis FordNewport News VA22600:30:3132200:03:3617602:55:0816000:01:4529902:26:56 05:57:54 
241315 Craig HickenMidlothian VA37200:37:5529900:03:1524803:05:3232100:03:1120902:08:41 05:58:32 
242341 Charles TuckerWilliamsburg VA37100:37:481300:01:0523003:02:1411800:01:2825702:16:31 05:59:04 
243117 Rob AllenRuther Glen VA31800:34:2817100:02:1413702:50:3727500:02:3630602:29:11 05:59:05 
244369 Carlos VeghBethesda MD39100:40:1829300:03:1228003:09:5827800:02:4017902:03:22 05:59:28 
245379 Wray ShermanWaynesboro VA12900:27:5029400:03:1227703:08:4730200:02:5626002:16:56 05:59:39 
246138 Kent LassmanAlexandria VA1600:23:0918200:02:1826603:07:2626400:02:3128802:24:30 05:59:53 
24765 Jacob DewaalOwings Mills MD18100:29:2131900:03:3433703:21:1625100:02:2018502:03:55 06:00:23 
PlaceBibCoNAMECITY/STATERankSWIMRankT1RankBIKERankT2RankRUNPENALTYTIMEDQ
24863 Jeff BerggrenAlexandria VA19200:29:3428500:03:0733503:20:4515200:01:4319202:05:45 06:00:51 
249212 William WhitlatchLancaster OH29700:33:2421600:02:3522003:00:4122600:02:1128102:22:25 06:01:14 
250342 Keith AlstonChesapeake VA36000:37:0528900:03:0725903:06:4727100:02:3323002:12:38 06:02:08 
251214 Greg ZappAshburn VA15100:28:2611100:01:5231603:17:173500:01:0323502:13:32 06:02:08 
2521 Andrew ColeFalls Church VA2800:23:4825600:02:5130703:14:5319500:01:5727002:19:25 06:02:52 
253151 Bret RichmondFrederick MD23400:30:4726300:02:5422103:00:4420200:02:0029702:26:41 06:03:03 
25449 Jim RudickWoodbridge VA16400:28:4515000:02:0629403:13:0223100:02:1426102:17:06 06:03:10 
255577CGregory BownBroadalbin NY23100:30:3939000:05:1523603:02:5739800:07:0726202:17:24 06:03:21 
256401 Donn VivianiArlington VA22900:30:3822200:02:3832503:19:1530000:02:5620702:07:59 06:03:25 
257118 William BlackWashington DC26800:32:1913800:02:0217302:54:5932000:03:1031102:31:03 06:03:31 
258235 Michael TothChagrin Falls OH18300:29:2213500:02:0229503:13:1619800:01:5826302:17:42 06:04:19 
259195 Tom AmrheinWashington DC39900:42:2739600:05:4431203:16:3229400:02:5213001:56:58 06:04:32 
260612NMPatrick McMannAnnapolis MD37900:38:4929500:03:1333803:21:2429000:02:4814701:58:29 06:04:40 
261109 William HancockWashington DC17000:28:5716300:02:1032203:19:0626900:02:3222602:12:05 06:04:48 
262222 Roman HelmsRichmond VA19700:29:4537600:04:4215402:52:2437400:04:4131802:33:23 06:04:53 
263323 Mark WrightAlexandria VA36400:37:1433600:03:5330303:14:2830300:02:5719702:06:57 06:05:27 
264160 Marcus CrowWaxhaw NC36200:37:0827000:02:5628703:10:5726200:02:3023802:13:57 06:07:26 
26583 Kore BendixBristow VA11500:27:2117400:02:1517402:55:0127300:02:3534302:40:35 06:07:44 
266107 Glenn ElliottAlexandria VA28700:33:0026200:02:5427503:08:2812900:01:3527902:22:13 06:08:08 
267230 Brian NgSilver Spring MD25100:31:2430900:03:2729803:13:5033000:03:2125502:16:26 06:08:26 
268215 Jaime CroweWashington DC31700:34:2631200:03:3034703:23:3322000:02:0919302:05:46 06:09:22 
269403 John HunnicuttGlen Allen VA24500:31:0828000:03:0030203:14:2337800:05:1325402:16:24 06:10:06 
270359 Ed NorlanderCulpeper VA39200:40:346100:01:3132703:19:277800:01:1720402:07:44 06:10:32 
271615NMDaniel WellensVirginia Beach VA21800:30:137100:01:3519102:56:5023500:02:1534002:39:44 06:10:35 
272351 Ardalan SadeghiNorth Canton OH8500:26:3524200:02:4720702:58:3917100:01:4734602:42:08 06:11:55 
273607 Daniel FalkAnnapolis MD23000:30:3928600:03:0733303:20:1526600:02:3122402:11:3100:04:0006:12:02 
274148 Mike KingAmissviile VA30200:33:324900:01:2527603:08:3710600:01:2430202:27:11 06:12:07 
275561 Michael DeckerAmsterdam NY40300:42:5036200:04:2723703:02:5821100:02:0427202:20:20 06:12:37 
276270 Kenton HassonGermantown MD29100:33:0718900:02:2328603:10:5513500:01:3627402:20:4100:04:0006:12:41 
27750 Jonathan StewartWashington DC18700:29:2733200:03:4921803:00:3433600:03:2732502:35:27 06:12:42 
27835 Brian JohnsonArlington VA34700:35:5433400:03:5234603:23:2433400:03:2619602:06:30 06:13:05 
PlaceBibCoNAMECITY/STATERankSWIMRankT1RankBIKERankT2RankRUNPENALTYTIMEDQ
27952 Christopher BradleyNorfolk VA33300:35:065200:01:2719502:57:0816100:01:4533202:37:48 06:13:12 
280353 Kevin UhlLynchburg VA24100:30:5237200:04:3532903:19:3332700:03:1624902:15:28 06:13:42 
28141 Nicholas WegerWashington DC18800:29:3021000:02:3136103:28:4114500:01:4022502:11:37 06:13:56 
282298 Joseph DelaneyAshburn VA33900:35:1939700:05:4627003:07:5132800:03:1828002:22:17 06:14:29 
283202 Jason GeorgeFalls Church VA27800:32:3838700:05:0131403:17:0433200:03:2225602:16:26 06:14:30 
284332 John SzczygielArlington VA30300:33:4219200:02:2421603:00:1820000:01:5932802:36:35 06:14:56 
285574MCRodney RubinSilver Spring MD21600:30:1024900:02:4827203:08:1016700:01:4731402:32:14 06:15:06 
286310 Alexis Lopez-BuitragoSilver Spring MD36800:37:4110700:01:5033403:20:2924900:02:1923202:12:58 06:15:15 
287183 Marcus LuczakHerndon VA17100:28:5731700:03:3327103:07:5534600:03:3531202:31:31 06:15:29 
288596CJeff WebbArlington VA6600:26:0012200:01:5533103:19:3416600:01:4729502:26:23 06:15:37 
289169 Christopher McWhinneyArlington VA14100:28:0824700:02:4824503:04:5329200:02:5233102:37:47 06:16:26 
290144 Jeremy HansonAlexandria VA38500:39:1935100:04:1232103:18:5835000:03:4421802:10:18 06:16:29 
291328 Dan KryszczukSpotsylvania VA37600:38:3219400:02:2620402:57:4525400:02:2032702:35:42 06:16:44 
292384 Rene FarissVirginia Beach VA38800:39:3131600:03:3127403:08:1524700:02:1828602:23:31 06:17:04 
293218 Paul FillmoreStafford VA27100:32:2423100:02:4222503:01:3017000:01:4733702:39:00 06:17:21 
294236 David TuftsWinchester VA24900:31:1827300:02:5832803:19:2831800:03:0827502:20:51 06:17:42 
295398 Randall BookoutFairfax Station VA30600:33:4725800:02:5137503:32:5014200:01:3719802:07:01 06:18:04 
296533CMatthew HallArlington VA16300:28:4519000:02:2332303:19:1419600:01:5829202:26:09 06:18:27 
297405 Dennis GeiserPittsboro NC38200:39:0922900:02:4132403:19:155700:01:1025902:16:40 06:18:54 
298333 William WordBeaverdam VA29500:33:1738400:04:5236303:28:5438800:06:0119502:06:19 06:19:21 
29981 Jeff WaltonArlington VA19300:29:3826700:02:5536803:31:1323800:02:1723402:13:31 06:19:32 
300137 Jon HadfieldChevy Chase MD33200:35:0236300:04:2727803:08:5239700:06:5528702:24:25 06:19:39 
30131 Kenneth ClossVirginia Beach VA32600:34:4837800:04:4328803:11:0329500:02:5329602:26:40 06:20:05 
302293 Paul KwiatkowskiDerwood MD34500:35:5337900:04:4435503:24:5726300:02:3023302:13:09 06:21:12 
303614NMHoward RhyneSouthern Pines NC20900:30:0036600:04:2923503:02:5137600:04:5933802:39:02 06:21:20 
304595CBryce WalkerWashington DC38900:39:4740600:07:0738203:36:1336100:04:1611501:54:13 06:21:34 
305354 Terry BashamDumfries VA28100:32:4232400:03:3735703:26:2835700:04:0124302:14:56 06:21:41 
306583CJohn LattaFairfax Station VA20000:29:4735500:04:1426503:07:1231100:03:0033002:37:36 06:21:47 
307134 Scott FisherWashington DC21000:30:0334700:04:0330503:14:4832400:03:1131002:29:57 06:22:01 
308220 Thomas FisherLexington Park MD35300:36:3727100:02:5729103:12:1131200:03:0230402:27:54 06:22:39 
309303 Mark MullenArlington VA38400:39:1824800:02:4831903:18:1517300:01:4927302:20:36 06:22:43 
PlaceBibCoNAMECITY/STATERankSWIMRankT1RankBIKERankT2RankRUNPENALTYTIMEDQ
31021 Andrew BrandtAlexandria VA40500:43:2025100:02:4921503:00:1424800:02:1932302:34:15 06:22:54 
311267 Niel BeggyKensington MD29300:33:1232300:03:3626903:07:4929100:02:5232602:35:41 06:23:07 
312385 Charles McGahaginPocomoke City MD21300:30:0839100:05:1819802:57:2332900:03:1935802:47:14 06:23:20 
313584CEdwin MerriganMcLean VA25500:31:4240400:06:3722203:00:5938500:05:2733902:39:05 06:23:49 
314104 Irawan BalcetAlexandria VA14800:28:223800:01:209102:44:562400:00:5938503:10:39 06:26:14 
315304CForrest CooperFt Belvoir VA41200:50:1237100:04:33102:14:1115000:01:4138203:05:3500:12:0006:28:10Y
316309 Kai GoodrichArlington VA37400:37:5827400:02:5834203:22:2323900:02:1728502:23:27 06:29:01 
317167 Walid MahmoudToledo OH20700:29:5630700:03:2530103:14:1528200:02:4334202:40:25 06:30:42 
31842 Tim CobbCharlottesville VA28600:32:5829800:03:1528303:10:4928300:02:4432902:37:1900:04:0006:31:02 
319404 David GearinArlington VA34100:35:3231000:03:2725703:06:3428900:02:4635002:43:02 06:31:20 
320209 James KnaackArlington VA32700:34:4930400:03:2226203:06:5828400:02:4535202:43:37 06:31:30 
32118 Adam MorgenthalerCary NC34800:36:0241600:11:5439603:43:4528500:02:4514101:57:47 06:32:10 
322368 Jari TuomalaWashington DC35200:36:2239200:05:3034503:22:5938200:05:1928202:22:42 06:32:51 
323266 Scott BauerHerndon VA29400:33:1635700:04:1839303:42:4434800:03:4021202:09:15 06:33:11 
324402 Ira YermishPhoenixville PA34300:35:4734600:04:0337103:31:5527200:02:3526902:18:56 06:33:14 
325186 Trey McFerrenRichmond VA40000:42:4040800:07:3636503:29:3335800:04:0221502:09:39 06:33:28 
326302 Michael LuBethesda MD37300:37:5725900:02:5230003:14:1432500:03:1332402:35:14 06:33:28 
32722 Andrew GendreauFalls Church VA36300:37:1332900:03:4736403:29:1027600:02:3827702:21:07 06:33:53 
328288 Dan CarneyHerndon VA33800:35:1630000:03:1538303:36:2336000:04:0925302:16:10 06:35:12 
329226 Jeffrey KohnTakoma Park MD27200:32:2534900:04:1033903:21:3039200:06:2031302:31:52 06:36:16 
330250 Mike KipreosRichmond VA35100:36:2038000:04:4535103:24:0429600:02:5430802:29:18 06:37:19 
331375 Vadim ObertyshevSilver Spring MD34000:35:3134800:04:1029003:11:2838300:05:2034402:41:16 06:37:42 
332295 Richard NagleAshburn VA35600:36:4523300:02:4228903:11:2537000:04:3334902:43:02 06:38:26 
333190 Chris ReiterKensington MD35700:36:5822600:02:4026003:06:4835200:03:4836202:48:24 06:38:36 
334587CScott PayneNewport News VA28000:32:4114900:02:0531303:16:5019400:01:5735402:45:11 06:38:43 
335582CBrad JohnsonMechanicsville VA29000:33:0434300:04:0033003:19:3438700:05:4733502:38:26 06:40:49 
336560MCDrew DahlgrenGrass Lake MI8200:26:3134100:03:5931703:17:3235300:03:5036402:49:11 06:41:02 
337211 Dirk SmithWashington DC36700:37:3929600:03:1431803:17:5436900:04:3233302:38:10 06:41:27 
338337 Chuck HelmsManassas VA36100:37:0633000:03:4734403:22:3737100:04:3631902:33:24 06:41:29 
33959 Brian TrammellAlexandria VA22800:30:3320400:02:2934803:23:4011400:01:2735302:44:17 06:42:24 
34020 Phillip TaylorSilver Spring MD30100:33:2637700:04:4334003:21:3634000:03:3134102:39:46 06:43:00 
PlaceBibCoNAMECITY/STATERankSWIMRankT1RankBIKERankT2RankRUNPENALTYTIMEDQ
341181 Rich GroveMcLean VA33700:35:1537000:04:3236703:30:5138600:05:3830302:27:44 06:43:57 
34279 Anthony PerryWashington DC36600:37:3017800:02:1635003:23:5631300:03:0331702:33:2000:04:0006:44:03 
343139 Andrew LeeArlington VA37000:37:4536500:04:2833603:20:5135500:04:0033402:38:24 06:45:27 
344592CMichael SchmidtAlexandria VA25400:31:3538300:04:4637903:35:3136500:04:2430902:29:54 06:46:08 
345225 Gary KartonArlington VA26500:32:0738600:04:5640403:50:4033500:03:2724802:15:24 06:46:32 
346586CJared ParkinsonOwings Mills MD40400:43:2039500:05:3835903:27:0236800:04:3129102:26:07 06:46:37 
347136 Joe GabanaVirginia Beach VA41601:04:3128400:03:0630403:14:468600:01:2028402:23:24 06:47:05 
348153 Rommel TamayoVirginia Beach VA32000:34:3228700:03:0737403:32:4927000:02:3332202:34:12 06:47:12 
349261 Christopher WatsonWashington DC31000:34:0535300:04:1240003:47:2033100:03:2126802:18:42 06:47:39 
350610NMBrent KynastonFredericksburg VA22400:30:2936400:04:2835203:24:1132200:03:1135602:45:45 06:48:02 
35153 Alex ChisholmMcLean VA23700:30:4825700:02:5135403:24:4733900:03:3035702:47:05 06:48:59 
352224 Matt HurtgenEvanston IL21100:30:0540100:06:0438803:39:0037700:05:0630702:29:18 06:49:32 
353396 Steven Carter-LovejoyRichmond VA23800:30:4925400:02:5032003:18:2339100:06:1336802:51:38 06:49:51 
354597CMatt WolfeArlington VA19500:29:415900:01:3137203:32:1428100:02:4335502:45:15 06:51:22 
355578CJon CooperArlington VA12300:27:3527200:02:5734303:22:3731900:03:0937302:55:07 06:51:23 
356356 Douglas HartmanSpringfield VA40900:47:3730600:03:2335803:26:5322700:02:1131502:32:16 06:52:18 
357200 Joshua EngelLaurel MD16900:28:5733800:03:5734103:22:1433700:03:2837102:54:32 06:53:06 
358308 John FarrellChesterfield VA39700:41:4820200:02:2837803:35:2120900:02:0332102:34:09 06:55:47 
359217 Rick DriggersDumfries VA24600:31:1031400:03:3135603:26:0939600:06:4636302:48:45 06:56:19 
360588CBryan PittmanSterling VA40200:42:4528800:03:0738103:35:5023400:02:1531602:33:04 06:56:59 
361565MCStu JamesAfton VA24700:31:1338200:04:4637003:31:5339500:06:3934802:43:01 06:57:29 
362609NMMichael HamrickAlexandria VA31100:34:0736100:04:2335303:24:1540200:07:5936102:47:50 06:58:32 
363608NMBrandon GardnerWest Palm Beach FL35000:36:1138800:05:0540904:01:1537300:04:3925102:15:36 07:02:44 
364611NMJack MartinGoochland VA26100:31:5815300:02:0736903:31:2220700:02:0237702:57:16 07:04:43 
365127 Graham WeihmillerLafayette Hill PA32800:34:5135400:04:1338603:38:2836300:04:1835902:47:34 07:09:23 
366372 Felix CatenaAmsterdam NY32400:34:4138500:04:5539503:43:4534900:03:4134702:42:42 07:09:42 
367604NMJustin BeckleyWashington DC38600:39:2335900:04:1939103:41:4922100:02:0935102:43:27 07:11:06 
368355 Kris DigheRockville MD39000:40:0026400:02:5438403:36:4131500:03:0636702:51:09 07:13:48 
369567MCTom KrahlingFredericksburg VA35900:37:0241000:08:2436603:30:272200:00:5837902:59:32 07:16:22 
370392 William OliverWashington DC35400:36:3724500:02:4837303:32:1627400:02:3538103:03:34 07:17:48 
371312 Gavin BuckleyAnnapolis MD35800:37:0041100:08:3237703:35:0439900:07:1636602:50:37 07:18:27 
PlaceBibCoNAMECITY/STATERankSWIMRankT1RankBIKERankT2RankRUNPENALTYTIMEDQ
372365 James ManningCentreville VA30800:33:4941400:09:2839903:47:0640000:07:1834502:41:30 07:19:10 
373243 Joseph DanekAnnapolis MD39800:42:0640700:07:2637603:35:0340100:07:1936502:50:36 07:22:27 
374558MCJames BrundageMontclair VA29600:33:2139300:05:3239003:40:2034700:03:3738003:01:10 07:23:58 
375591CSeth RussAlexandria VA40800:46:4540300:06:2812302:49:0938400:05:2539103:36:51 07:24:36 
376197 Matthew CrowCharlotte NC40600:44:1037300:04:3538903:40:1335600:04:0136902:53:26 07:26:23 
377579CTim GretenArlington VA17300:29:0231100:03:2938703:38:2932600:03:1638603:13:16 07:27:29 
378564MCAndrew GoldkuhleMechanicsville VA34400:35:4830500:03:2340303:50:3831000:03:0037502:55:37 07:28:25 
379231 John PanekBowie MD38000:39:0538900:05:0739403:42:5140300:08:1837402:55:22 07:30:41 
380255 Alex MirkowBethesda MD33600:35:0739800:05:5140503:52:5936200:04:1837002:53:47 07:32:00 
381361 Steve ClarkeAshland VA41400:53:0936800:04:3038503:36:4830400:02:5937202:54:46 07:32:11 
382275 Eric LetsingerChevy Chase MD25700:31:4440500:06:5841204:09:0639000:06:1033602:38:37 07:32:34 
383316 Art IannuzziAmsterdam NY27500:32:3641200:08:4239203:42:2238100:05:1638403:06:43 07:35:37 
384124 Christopher ScheidlerStafford VA36900:37:4541300:09:1338003:35:3840500:09:5738303:05:47 07:38:18 
385605NMPhilip BernhardtAlexandria VA32500:34:4340900:08:1041004:03:1739300:06:3236002:47:41 07:40:21 
386606NMWilliam DaleVienna, Va VA39300:40:4439900:05:5340603:55:2437900:05:1437602:56:52 07:44:05 
387613NMVince OneillAlexandria VA41100:49:5137400:04:3540203:49:4540400:08:3237802:57:39 07:50:21 
388292 Dan HobbsDale City VA31900:34:3023700:02:4436203:28:4637500:04:4739203:41:30 07:52:13 
389575MCWilliam VeihmeyerEllicott City MD32100:34:3239400:05:3639803:46:5738900:06:0738803:19:15 07:52:24 
390350 Richard PinskeyArlington VA33100:35:0031500:03:3140704:00:4636600:04:2838703:13:32 07:57:16 
391399 Doug PowellFalls Church VA27700:32:3736700:04:3041304:09:4837200:04:3938903:21:14 08:12:46 
39268 Colin JohnsonWashington DC37800:38:4129000:03:0941104:06:4434100:03:3239003:28:12 08:20:15 
39376 Nick LeheckaIthaca NY300:21:202600:01:15702:25:213800:01:04 DNF DNF 
39430 Andy BlateckyWashington DC5900:25:451400:01:054902:38:404800:01:08 DNF DNF 
395227 David LettBurke VA23500:30:4815400:02:0814602:51:335100:01:08 DNF DNF 
396219 Jim FisherRichmond VA5700:25:165400:01:282802:32:488500:01:20 DNF DNF 
39756 Barry MillerWashington DC1400:22:5312500:01:587102:42:429500:01:22 DNF DNF 
398377 David SpartinWilmington DE21700:30:136300:01:3133203:19:4514300:01:38 DNF DNF 
399111 Simon JacksonWashington DC17600:29:1218300:02:1929903:14:0918900:01:55 DNF DNF 
400347 Paul IngholtVienna VA700:22:047800:01:3615102:52:0821500:02:06 DNF DNF 
401192 David VielbigAshburn VA22500:30:3020600:02:3018502:56:0634300:03:34 DNF DNF 
402163 Patrick KennedyAlexandria VA7900:26:2633100:03:4830603:14:4934400:03:35 DNF DNF 
PlaceBibCoNAMECITY/STATERankSWIMRankT1RankBIKERankT2RankRUNPENALTYTIMEDQ
403253 Jeffrey LamAshburn VA33400:35:0633900:03:5834903:23:5335400:03:57 DNF DNF 
404374 John McLaughlinSeverna Park MD4800:24:4133300:03:5132603:19:1838000:05:15 DNF DNF 
405157 Paul BakerFalls Church VA19800:29:4629100:03:0925103:05:44 DNF DNF DNF 
406154 Robert WilliamsWashington DC41500:55:3528100:03:0039703:44:24 DNF DNF DNF 
407313 Randy DooleyArlington VA41000:48:4140000:05:5640103:48:35 DNF DNF DNF 
408113 Mike NelsonBristow VA31500:34:2211600:01:5341404:15:17 DNF DNF DNF 
409223 Joel HughesMoseley VA41300:51:4829700:03:14 DNF DNF DNF DNF 
410594CChris TowleBaltimore MD34900:36:0632700:03:40 DNF DNF DNF DNF 
411572MCRaymond NancozFalls Church VA15300:28:2836900:04:3114902:52:0125500:02:21 DNF DNF 
412616BMTerry HartColumbia MO25900:31:535300:01:284302:37:30       
413620BMDavid TomblinAlexandria VA21900:30:1514500:02:0516902:54:40       
414619BMGlenn StephensWashington Dc DC10200:27:095800:01:3024303:04:32       
415618BMBruce RedmonCulpeper VA3800:24:1531300:03:3029603:13:25       
416617BMKurt KoniecznyAmsterdam NY40700:44:1641500:10:5840804:01:14       

** Results are for the private use of participants and are the Intellectual Property of Set Up Events. Unauthorized use of these results is prohibited.